Time;durP1;ratioP1;P1;durP2;ratioP2;P2;SDS_P1;SDS_P2;PMS_P1;PMS_P2;Temp;Humidity;BMP_temperature;BMP_pressure;BME280_temperature;BME280_humidity;BME280_pressure;Samples;Min_cycle;Max_cycle;Signal;HPM_P1;HPM_P2
2022/04/15 07:58:52;;;;;;;73.93;59.47;;;;;;;10.15;87.78;102657.38;5267441;28;20407;-81
2022/04/15 08:01:27;;;;;;;24.98;20.25;;;;;;;10.16;87.56;102659.06;5258121;28;20028;-78
2022/04/15 08:03:59;;;;;;;18.20;15.45;;;;;;;10.10;87.20;102660.91;5258084;28;20488;-78
2022/04/15 08:06:31;;;;;;;18.58;15.68;;;;;;;10.22;88.18;102664.47;5257146;28;20036;-78
2022/04/15 08:09:02;;;;;;;22.25;15.45;;;;;;;10.17;87.71;102655.19;5254652;28;20033;-78
2022/04/15 08:11:33;;;;;;;22.58;17.08;;;;;;;10.08;87.28;102657.50;5247280;28;20029;-77
2022/04/15 08:14:05;;;;;;;20.23;15.88;;;;;;;10.24;87.18;102644.84;5263204;28;20036;-77
2022/04/15 08:16:36;;;;;;;20.00;14.98;;;;;;;10.35;86.43;102657.84;5280189;28;20082;-77
2022/04/15 08:19:07;;;;;;;23.02;19.75;;;;;;;10.34;86.76;102656.19;5270140;28;20107;-76
2022/04/15 08:21:39;;;;;;;18.42;14.40;;;;;;;10.34;85.88;102658.13;5276323;28;20052;-77
2022/04/15 08:24:10;;;;;;;17.08;13.68;;;;;;;10.32;84.93;102658.34;5250701;28;20025;-78
2022/04/15 08:26:44;;;;;;;15.80;12.52;;;;;;;10.59;86.28;102657.81;5238541;28;20060;-76
2022/04/15 08:29:16;;;;;;;45.95;37.35;;;;;;;10.53;85.55;102658.78;5238757;28;20448;-78
2022/04/15 08:31:48;;;;;;;17.80;14.68;;;;;;;10.59;84.93;102657.81;5255168;28;20036;-77
2022/04/15 08:34:19;;;;;;;14.43;12.93;;;;;;;10.76;85.09;102663.41;5257158;28;20033;-78
2022/04/15 08:36:51;;;;;;;16.73;13.38;;;;;;;10.74;85.15;102662.84;5258757;28;20025;-77
2022/04/15 08:39:22;;;;;;;14.85;11.65;;;;;;;10.77;82.55;102671.50;5257926;28;20057;-79
2022/04/15 08:41:54;;;;;;;14.68;11.15;;;;;;;10.80;82.68;102673.78;5258618;28;20118;-79
2022/04/15 08:44:25;;;;;;;13.07;11.55;;;;;;;10.69;81.45;102673.84;5261558;28;20036;-79
2022/04/15 08:46:58;;;;;;;14.63;11.32;;;;;;;10.67;81.63;102682.41;5259084;28;20132;-80
2022/04/15 08:49:29;;;;;;;15.35;9.68;;;;;;;11.16;82.68;102685.59;5258410;28;20048;-79
2022/04/15 08:52:01;;;;;;;15.77;10.50;;;;;;;10.82;80.75;102677.16;5258639;28;20022;-78
2022/04/15 08:54:32;;;;;;;13.90;9.95;;;;;;;11.30;82.47;102684.19;5260018;28;20083;-78
2022/04/15 08:57:04;;;;;;;10.90;9.57;;;;;;;11.08;78.16;102683.22;5261261;28;20040;-76
2022/04/15 08:59:35;;;;;;;12.90;10.00;;;;;;;10.83;76.75;102675.22;5261248;28;20554;-78
2022/04/15 09:02:07;;;;;;;11.48;10.38;;;;;;;10.93;78.16;102682.91;5278992;28;20168;-79
2022/04/15 09:04:38;;;;;;;15.18;9.75;;;;;;;11.08;77.37;102686.00;5264611;28;20039;-77
2022/04/15 09:07:13;;;;;;;9.98;8.20;;;;;;;11.56;79.78;102690.19;5257039;28;20018;-78
2022/04/15 09:09:54;;;;;;;9.02;8.13;;;;;;;11.43;76.07;102685.81;5246756;28;20174;-80
2022/04/15 09:12:29;;;;;;;10.63;8.82;;;;;;;11.54;75.27;102686.81;5244169;28;20021;-81
2022/04/15 09:15:08;;;;;;;12.05;8.27;;;;;;;11.74;76.20;102695.50;5241993;28;20377;-82
2022/04/15 09:17:42;;;;;;;12.40;8.40;;;;;;;11.94;75.29;102694.19;5245242;28;20392;-83
2022/04/15 09:20:14;;;;;;;9.70;8.00;;;;;;;11.75;73.66;102690.78;5245127;28;20064;-82
2022/04/15 09:22:46;;;;;;;8.85;7.13;;;;;;;11.93;74.24;102695.28;5244278;28;20045;-78
2022/04/15 09:25:24;;;;;;;19.00;16.25;;;;;;;11.86;74.09;102695.47;5244917;28;20095;-78
2022/04/15 09:27:57;;;;;;;10.20;9.13;;;;;;;11.82;72.53;102693.41;5243183;28;20481;-78
2022/04/15 09:30:36;;;;;;;10.88;8.68;;;;;;;11.70;71.97;102694.31;5238385;28;20108;-78
2022/04/15 09:33:10;;;;;;;10.57;8.57;;;;;;;11.80;72.76;102698.38;5243669;28;20464;-79
2022/04/15 09:35:45;;;;;;;9.50;8.55;;;;;;;11.61;72.24;102698.63;5235819;28;20517;-78
2022/04/15 09:38:16;;;;;;;9.57;8.57;;;;;;;11.58;72.05;102703.81;5240799;28;20033;-78
2022/04/15 09:40:48;;;;;;;9.38;8.05;;;;;;;11.85;73.74;102701.22;5244600;28;20022;-79
2022/04/15 09:43:19;;;;;;;10.80;9.20;;;;;;;11.83;72.45;102708.97;5242927;28;20031;-79
2022/04/15 09:45:51;;;;;;;8.70;7.90;;;;;;;12.02;73.20;102704.88;5244021;28;20025;-79
2022/04/15 09:48:23;;;;;;;11.15;9.68;;;;;;;12.03;71.87;102712.13;5243021;28;20034;-80
2022/04/15 09:50:58;;;;;;;9.80;8.32;;;;;;;12.08;70.99;102703.03;5244682;28;20033;-77
2022/04/15 09:53:34;;;;;;;8.10;7.40;;;;;;;12.21;71.46;102708.22;5260891;28;20166;-79
2022/04/15 09:56:06;;;;;;;8.90;7.68;;;;;;;12.38;70.43;102708.19;5254122;28;20438;-80
2022/04/15 09:58:39;;;;;;;23.15;18.15;;;;;;;12.60;70.95;102700.72;5262554;28;20061;-78
2022/04/15 10:01:11;;;;;;;13.70;10.45;;;;;;;12.69;70.72;102703.03;5243651;28;20036;-78
2022/04/15 10:03:45;;;;;;;14.75;9.57;;;;;;;12.89;70.94;102703.28;5241815;28;20025;-76
2022/04/15 10:06:19;;;;;;;8.60;6.68;;;;;;;13.11;70.52;102699.63;5253225;28;20029;-73
2022/04/15 10:08:51;;;;;;;11.05;9.68;;;;;;;12.83;67.13;102702.41;5242408;28;20025;-73
2022/04/15 10:11:24;;;;;;;10.02;8.88;;;;;;;12.92;66.96;102699.97;5241826;28;20030;-73
2022/04/15 10:13:56;;;;;;;9.43;8.52;;;;;;;13.01;66.43;102692.00;5242695;28;20041;-73
2022/04/15 10:16:28;;;;;;;8.48;7.60;;;;;;;13.05;66.03;102695.94;5242704;28;20475;-74
2022/04/15 10:19:01;;;;;;;7.82;7.05;;;;;;;13.16;66.46;102702.47;5242040;28;20490;-79
2022/04/15 10:21:35;;;;;;;8.13;7.13;;;;;;;13.28;67.93;102694.84;5241050;28;20033;-77
2022/04/15 10:24:10;;;;;;;7.60;6.80;;;;;;;13.00;65.28;102693.09;5241454;28;20179;-79
2022/04/15 10:26:45;;;;;;;8.48;6.63;;;;;;;12.98;64.96;102690.56;5227937;28;20030;-80
2022/04/15 10:29:16;;;;;;;7.57;6.88;;;;;;;13.10;65.51;102689.59;5243068;28;20372;-80
2022/04/15 10:31:52;;;;;;;6.53;5.93;;;;;;;13.53;67.01;102691.47;5242164;28;20040;-81
2022/04/15 10:34:26;;;;;;;9.10;7.30;;;;;;;13.55;65.33;102693.97;5242459;28;20104;-78
2022/04/15 10:36:57;;;;;;;8.35;7.45;;;;;;;13.37;63.85;102687.69;5242262;28;20507;-79
2022/04/15 10:39:29;;;;;;;9.60;7.70;;;;;;;13.09;64.05;102680.41;5224538;28;20034;-79
2022/04/15 10:42:04;;;;;;;8.30;7.43;;;;;;;13.07;65.13;102681.78;5233330;28;20033;-79
2022/04/15 10:44:39;;;;;;;9.27;7.25;;;;;;;13.29;65.94;102687.31;5242573;28;20037;-78
2022/04/15 10:47:19;;;;;;;7.38;6.68;;;;;;;13.21;64.01;102685.81;5229592;28;20029;-76
2022/04/15 10:49:54;;;;;;;12.00;7.85;;;;;;;13.41;64.16;102682.41;5242293;28;20116;-82
2022/04/15 10:52:27;;;;;;;9.80;7.15;;;;;;;13.47;63.42;102682.22;5242127;28;20437;-80
2022/04/15 10:55:00;;;;;;;6.95;6.25;;;;;;;13.68;65.14;102682.38;5242227;28;20079;-77
2022/04/15 10:57:33;;;;;;;8.57;7.78;;;;;;;13.48;64.60;102677.47;5242266;28;20461;-81
2022/04/15 11:03:26;;;;;;;13.95;11.95;;;;;;;13.74;63.89;102681.31;5221989;28;20392;-79
2022/04/15 11:05:59;;;;;;;23.10;20.17;;;;;;;13.69;63.02;102672.91;5220433;28;20033;-78
2022/04/15 11:08:48;;;;;;;11.90;10.20;;;;;;;13.64;64.22;102673.69;5239998;28;20112;-78
2022/04/15 11:11:39;;;;;;;9.00;8.30;;;;;;;13.67;62.76;102677.91;5242137;28;20048;-77
2022/04/15 11:14:16;;;;;;;7.50;6.57;;;;;;;13.68;62.39;102672.06;5241101;28;20112;-79
2022/04/15 11:16:48;;;;;;;8.38;6.95;;;;;;;13.87;62.24;102668.88;5242021;28;20072;-77
2022/04/15 11:19:24;;;;;;;7.45;6.20;;;;;;;13.86;62.35;102676.41;5241410;28;20167;-78
2022/04/15 11:21:56;;;;;;;7.07;6.40;;;;;;;13.66;62.01;102670.66;5241163;28;20036;-77
2022/04/15 11:24:30;;;;;;;7.95;7.00;;;;;;;13.74;62.10;102675.75;5241371;28;20021;-78
2022/04/15 11:27:03;;;;;;;7.65;6.93;;;;;;;13.87;62.81;102668.88;5241287;28;20102;-78
2022/04/15 11:29:35;;;;;;;7.97;6.90;;;;;;;13.83;62.45;102668.56;5241883;28;20029;-76
2022/04/15 11:32:08;;;;;;;7.68;6.53;;;;;;;14.01;61.68;102667.31;5241056;28;20160;-80
2022/04/15 11:34:42;;;;;;;7.93;6.50;;;;;;;14.08;61.47;102664.25;5241022;28;20520;-77
2022/04/15 11:37:14;;;;;;;7.53;6.93;;;;;;;14.07;61.08;102669.00;5240631;28;20026;-76
2022/04/15 11:39:47;;;;;;;7.68;6.80;;;;;;;14.15;61.56;102670.44;5238974;28;20029;-77
2022/04/15 11:42:20;;;;;;;7.55;6.60;;;;;;;14.30;61.29;102662.16;5234465;28;20112;-78
2022/04/15 11:44:51;;;;;;;7.60;6.88;;;;;;;14.41;59.72;102667.78;5221437;28;20040;-78
2022/04/15 11:47:26;;;;;;;6.63;5.93;;;;;;;14.53;59.82;102668.44;5221293;28;20026;-78
2022/04/15 11:49:58;;;;;;;6.68;6.00;;;;;;;14.56;59.25;102665.09;5220586;28;20034;-78
2022/04/15 11:52:29;;;;;;;6.80;6.10;;;;;;;14.59;59.84;102661.75;5221345;28;20026;-78
2022/04/15 11:55:01;;;;;;;7.45;6.25;;;;;;;14.64;59.37;102672.13;5221830;28;20105;-77
2022/04/15 11:57:32;;;;;;;7.93;6.30;;;;;;;14.59;59.13;102666.50;5232556;28;20452;-76
2022/04/15 12:00:04;;;;;;;8.80;8.00;;;;;;;14.62;58.56;102664.00;5241017;28;20037;-78
2022/04/15 12:02:44;;;;;;;11.02;7.07;;;;;;;14.79;58.34;102666.59;5239728;28;20026;-77
2022/04/15 12:05:16;;;;;;;6.78;6.13;;;;;;;14.86;57.79;102669.97;5241318;28;20384;-76
2022/04/15 12:07:53;;;;;;;36.97;33.08;;;;;;;14.91;57.52;102674.75;5239993;28;20040;-75
2022/04/15 12:10:24;;;;;;;31.75;28.40;;;;;;;14.90;58.42;102667.47;5239715;28;20020;-77
2022/04/15 12:12:58;;;;;;;7.85;6.57;;;;;;;15.11;57.30;102672.00;5240963;28;20037;-76
2022/04/15 12:15:30;;;;;;;6.50;5.90;;;;;;;15.04;56.62;102668.63;5241158;28;20025;-74
2022/04/15 12:18:03;;;;;;;7.18;6.15;;;;;;;15.04;56.72;102670.59;5240184;28;20033;-76
2022/04/15 12:20:37;;;;;;;7.30;6.45;;;;;;;15.31;56.60;102670.34;5240659;28;20488;-72
2022/04/15 12:23:11;;;;;;;7.88;7.18;;;;;;;15.23;55.86;102668.94;5240816;28;20442;-76
2022/04/15 12:31:35;;;;;;;6.53;5.70;;;;;;;15.49;55.22;102672.59;5239945;28;20037;-74
2022/04/15 12:34:06;;;;;;;7.25;6.05;;;;;;;15.48;54.96;102676.50;5240688;28;20021;-72
2022/04/15 12:36:43;;;;;;;8.40;6.90;;;;;;;15.49;54.53;102672.59;5240208;28;20128;-74
2022/04/15 12:39:14;;;;;;;7.50;6.22;;;;;;;15.50;55.05;102674.28;5240186;28;20057;-74
2022/04/15 12:41:48;;;;;;;7.00;6.35;;;;;;;15.66;54.55;102677.91;5239710;28;20056;-74
2022/04/15 12:44:23;;;;;;;9.25;8.35;;;;;;;15.68;54.45;102670.09;5244187;28;20037;-76
2022/04/15 12:47:00;;;;;;;7.32;6.63;;;;;;;15.91;54.16;102667.88;5244787;28;20104;-78
2022/04/15 12:49:34;;;;;;;7.70;6.53;;;;;;;15.66;53.62;102667.56;5245416;28;20055;-78
2022/04/15 12:52:11;;;;;;;7.22;6.28;;;;;;;15.78;54.59;102666.50;5264972;28;20107;-77
2022/04/15 12:55:05;;;;;;;6.97;6.28;;;;;;;16.02;54.76;102669.53;5255380;28;20025;-77
2022/04/15 12:57:41;;;;;;;7.15;6.45;;;;;;;16.21;53.53;102667.81;5244391;28;20465;-71
2022/04/15 13:00:12;;;;;;;6.38;5.85;;;;;;;16.28;52.82;102667.50;5244159;28;20049;-74
2022/04/15 13:02:44;;;;;;;21.92;19.90;;;;;;;16.30;52.33;102676.47;5243984;28;20184;-73
2022/04/15 13:05:17;;;;;;;7.53;6.35;;;;;;;16.17;51.56;102666.69;5244174;28;20354;-74
2022/04/15 13:07:50;;;;;;;8.48;6.03;;;;;;;16.18;52.99;102668.38;5243345;28;20495;-74
2022/04/15 13:10:24;;;;;;;7.18;6.47;;;;;;;16.14;51.68;102666.44;5243897;28;20159;-75
2022/04/15 13:12:55;;;;;;;11.00;9.73;;;;;;;16.24;51.68;102670.03;5242991;28;20091;-77
2022/04/15 13:15:27;;;;;;;7.07;6.47;;;;;;;16.36;51.30;102661.34;5243450;28;20080;-75
2022/04/15 13:17:58;;;;;;;7.38;6.53;;;;;;;16.28;51.63;102665.56;5244008;28;20033;-76
2022/04/15 13:20:30;;;;;;;6.85;6.03;;;;;;;16.36;52.25;102658.53;5242772;28;20032;-76
2022/04/15 13:23:02;;;;;;;7.38;5.70;;;;;;;16.46;51.16;102657.63;5243750;28;20033;-74
2022/04/15 13:25:33;;;;;;;7.43;6.70;;;;;;;16.49;51.47;102660.72;5243728;28;20536;-79
2022/04/15 13:28:05;;;;;;;9.90;8.95;;;;;;;16.65;51.64;102650.28;5243068;28;20388;-77
2022/04/15 13:30:37;;;;;;;7.68;5.57;;;;;;;16.47;50.43;102654.56;5243201;28;20033;-79
2022/04/15 13:33:09;;;;;;;6.80;5.72;;;;;;;16.81;50.72;102653.88;5254040;28;20029;-77
2022/04/15 13:35:40;;;;;;;6.15;5.53;;;;;;;16.85;50.46;102649.38;5224674;28;20033;-76
2022/04/15 13:38:12;;;;;;;7.03;6.30;;;;;;;16.90;51.22;102651.34;5259392;28;20120;-76
2022/04/15 13:40:44;;;;;;;7.30;6.53;;;;;;;16.77;49.81;102651.91;5253603;28;20380;-75
2022/04/15 13:43:16;;;;;;;7.65;6.95;;;;;;;16.91;50.25;102653.81;5243041;28;20467;-76
2022/04/15 13:45:47;;;;;;;6.43;5.78;;;;;;;16.97;49.68;102656.59;5243029;28;20029;-77
2022/04/15 13:48:20;;;;;;;7.40;6.25;;;;;;;17.05;49.91;102656.84;5242643;28;20026;-77
2022/04/15 13:50:52;;;;;;;7.05;6.45;;;;;;;16.98;49.37;102655.50;5243091;28;20044;-76
2022/04/15 13:59:05;;;;;;;8.82;6.05;;;;;;;17.13;50.03;102655.38;5242982;28;20041;-75
2022/04/15 14:01:43;;;;;;;6.90;6.30;;;;;;;17.20;50.26;102660.66;5242476;28;20037;-76
2022/04/15 14:04:16;;;;;;;8.15;6.00;;;;;;;17.47;49.61;102660.19;5242615;28;20394;-76
2022/04/15 14:06:50;;;;;;;7.00;6.38;;;;;;;17.30;49.65;102660.59;5253298;28;20032;-75
2022/04/15 14:09:21;;;;;;;8.07;7.10;;;;;;;17.54;49.23;102655.09;5262750;28;20436;-79
2022/04/15 14:11:52;;;;;;;6.53;5.53;;;;;;;17.11;49.65;102657.63;5264259;28;20025;-74
2022/04/15 14:14:23;;;;;;;10.20;6.28;;;;;;;16.85;51.56;102655.00;5243527;28;20014;-77
2022/04/15 14:16:55;;;;;;;7.18;6.60;;;;;;;17.11;50.96;102655.66;5221900;28;20265;-76
2022/04/15 14:19:26;;;;;;;6.10;5.60;;;;;;;17.30;51.53;102655.81;5232882;28;20074;-77
2022/04/15 14:21:57;;;;;;;7.30;6.60;;;;;;;17.34;50.44;102654.09;5247412;28;20133;-75
2022/04/15 14:24:28;;;;;;;6.65;5.82;;;;;;;17.14;50.83;102654.25;5242777;28;20013;-79
2022/04/15 14:27:00;;;;;;;8.00;6.43;;;;;;;17.00;50.06;102651.28;5242792;28;20025;-75
2022/04/15 14:29:33;;;;;;;9.77;7.28;;;;;;;17.17;50.84;102654.50;5241884;28;20120;-76
2022/04/15 14:32:06;;;;;;;7.70;6.47;;;;;;;17.24;51.42;102656.16;5241515;28;20103;-74
2022/04/15 14:34:38;;;;;;;7.53;6.32;;;;;;;17.05;51.78;102654.03;5241981;28;20025;-71
2022/04/15 14:37:09;;;;;;;8.10;6.03;;;;;;;16.84;52.59;102656.09;5239736;28;20759;-77
2022/04/15 14:39:40;;;;;;;7.40;6.13;;;;;;;16.51;51.82;102663.22;5242261;28;20026;-74
2022/04/15 14:42:12;;;;;;;7.10;6.20;;;;;;;16.88;51.41;102659.19;5246718;28;20025;-73
2022/04/15 14:44:43;;;;;;;7.57;6.78;;;;;;;16.83;50.89;102656.41;5241067;28;20037;-75
2022/04/15 14:47:15;;;;;;;9.32;6.47;;;;;;;16.87;51.40;102669.56;5242607;28;20084;-77
2022/04/15 14:49:47;;;;;;;7.40;6.70;;;;;;;17.02;51.32;102664.97;5242494;28;20029;-78
2022/04/15 14:52:18;;;;;;;8.60;5.90;;;;;;;16.88;52.26;102660.00;5242695;28;20030;-81
2022/04/15 14:54:51;;;;;;;7.15;6.55;;;;;;;16.58;52.22;102660.13;5244153;28;20029;-79
2022/04/15 14:57:23;;;;;;;11.23;7.07;;;;;;;16.46;52.28;102657.63;5242508;28;20049;-79
2022/04/15 14:59:54;;;;;;;6.63;5.82;;;;;;;16.43;52.83;102664.66;5243601;28;20453;-79
2022/04/15 15:02:26;;;;;;;8.40;7.05;;;;;;;16.36;51.79;102671.69;5243853;28;20095;-81
2022/04/15 15:04:57;;;;;;;8.38;7.50;;;;;;;16.33;52.85;102659.09;5241964;28;20048;-79
2022/04/15 15:07:29;;;;;;;10.48;6.45;;;;;;;16.38;52.42;102675.03;5241430;28;20033;-81
2022/04/15 15:10:00;;;;;;;7.70;6.85;;;;;;;16.42;52.16;102673.34;5242158;28;20026;-80
2022/04/15 15:12:32;;;;;;;8.18;6.35;;;;;;;16.30;52.61;102680.09;5241219;28;20108;-75
2022/04/15 15:15:04;;;;;;;8.93;7.03;;;;;;;16.22;52.37;102671.44;5242120;28;20031;-75
2022/04/15 15:17:36;;;;;;;7.95;6.97;;;;;;;16.13;52.76;102684.34;5241387;28;20041;-75
2022/04/15 15:20:08;;;;;;;7.07;6.38;;;;;;;16.10;53.46;102685.72;5240642;28;20043;-77
2022/04/15 15:22:41;;;;;;;9.45;8.30;;;;;;;16.24;52.30;102680.41;5241568;28;20033;-77
2022/04/15 15:30:52;;;;;;;8.52;7.63;;;;;;;16.30;53.13;102682.06;5242318;28;20077;-77
2022/04/15 15:33:24;;;;;;;16.67;9.05;;;;;;;16.08;53.97;102688.84;5242415;28;20022;-78
2022/04/15 15:35:55;;;;;;;10.50;9.27;;;;;;;16.18;54.40;102687.13;5246971;28;20038;-77
2022/04/15 15:38:26;;;;;;;11.57;10.35;;;;;;;16.07;53.28;102684.34;5249134;28;20026;-79
2022/04/15 15:40:58;;;;;;;9.95;8.98;;;;;;;15.91;53.89;102690.25;5248013;28;20083;-76
2022/04/15 15:43:30;;;;;;;9.38;8.50;;;;;;;15.68;53.88;102686.03;5248377;28;20017;-75
2022/04/15 15:46:02;;;;;;;18.08;14.73;;;;;;;15.86;53.73;102683.53;5248556;28;20029;-77
2022/04/15 15:48:33;;;;;;;9.10;8.15;;;;;;;15.93;54.47;102677.66;5243196;28;20457;-75
2022/04/15 15:51:04;;;;;;;10.27;9.30;;;;;;;15.82;53.63;102676.84;5246539;28;20017;-77
2022/04/15 15:53:39;;;;;;;16.05;8.88;;;;;;;15.83;55.24;102689.69;5246865;28;20152;-79
2022/04/15 15:56:10;;;;;;;9.40;7.07;;;;;;;15.99;55.80;102692.47;5243631;28;20508;-78
2022/04/15 15:58:41;;;;;;;13.23;11.80;;;;;;;15.84;55.10;102690.53;5241070;28;20126;-77
2022/04/15 16:01:13;;;;;;;8.48;7.55;;;;;;;15.97;54.67;102695.53;5242041;28;20098;-78
2022/04/15 16:03:44;;;;;;;8.95;7.45;;;;;;;15.69;55.30;102704.50;5241345;28;20033;-74
2022/04/15 16:06:17;;;;;;;13.25;12.00;;;;;;;15.88;54.62;102710.41;5241956;28;20033;-76
2022/04/15 16:08:48;;;;;;;12.18;8.90;;;;;;;15.86;54.25;102699.50;5241005;28;20041;-77
2022/04/15 16:11:19;;;;;;;9.70;8.35;;;;;;;15.90;54.29;102695.03;5252777;28;20033;-73
2022/04/15 16:13:54;;;;;;;11.85;10.75;;;;;;;15.73;53.13;102700.06;5238200;28;20017;-72
2022/04/15 16:16:25;;;;;;;10.32;9.18;;;;;;;15.57;53.57;102696.34;5240027;28;20033;-70
2022/04/15 16:18:56;;;;;;;10.93;8.85;;;;;;;15.59;53.76;102706.16;5241188;28;20030;-74
2022/04/15 16:21:29;;;;;;;10.07;8.63;;;;;;;15.67;53.27;102713.16;5228282;28;20060;-74
2022/04/15 16:24:01;;;;;;;9.20;8.30;;;;;;;15.62;52.84;102701.97;5242710;28;20029;-73
2022/04/15 16:26:32;;;;;;;10.23;9.32;;;;;;;15.76;53.67;102699.50;5244277;28;20029;-75
2022/04/15 16:29:04;;;;;;;9.57;8.60;;;;;;;15.65;52.78;102710.66;5244864;28;20041;-74
2022/04/15 16:31:35;;;;;;;9.07;8.25;;;;;;;15.50;52.85;102707.00;5244375;28;20384;-74
2022/04/15 16:34:06;;;;;;;8.48;7.18;;;;;;;15.58;53.77;102709.25;5245155;28;20433;-73
2022/04/15 16:36:38;;;;;;;8.18;7.25;;;;;;;15.44;53.07;102712.59;5243084;28;20044;-73
2022/04/15 16:39:09;;;;;;;10.77;8.20;;;;;;;15.41;53.14;102715.09;5245413;28;20369;-76
2022/04/15 16:41:40;;;;;;;9.45;7.72;;;;;;;15.63;52.16;102710.09;5244890;28;20096;-76
2022/04/15 16:44:12;;;;;;;7.57;6.88;;;;;;;15.19;52.75;102701.38;5243965;28;20025;-76
2022/04/15 16:46:43;;;;;;;8.48;7.68;;;;;;;15.34;53.09;102704.19;5244485;28;20037;-74
2022/04/15 16:49:15;;;;;;;8.73;7.13;;;;;;;15.61;53.19;102711.47;5244646;28;20029;-72
2022/04/15 16:51:46;;;;;;;11.85;7.72;;;;;;;15.20;53.30;102717.00;5243986;28;20036;-73
2022/04/15 16:58:37;;;;;;;9.38;8.50;;;;;;;15.17;53.61;102710.00;5244716;28;20121;-73
2022/04/15 17:00:03;;;;;;;8.68;7.88;;;;;;;15.22;54.37;102714.78;5244125;28;20033;-73
2022/04/15 17:02:34;;;;;;;9.80;8.25;;;;;;;15.22;53.79;102721.19;5244480;28;20032;-73
2022/04/15 17:05:06;;;;;;;8.48;7.78;;;;;;;15.07;53.96;102726.75;5243679;28;20033;-73
2022/04/15 17:07:37;;;;;;;8.20;7.50;;;;;;;14.70;53.78;102715.69;5244308;28;20026;-73
2022/04/15 17:10:09;;;;;;;7.90;7.10;;;;;;;14.68;54.64;102720.75;5244397;28;20112;-73
2022/04/15 17:12:40;;;;;;;7.85;7.07;;;;;;;14.62;55.28;102719.00;5243568;28;20041;-73
2022/04/15 17:15:11;;;;;;;8.30;7.50;;;;;;;14.16;55.48;102727.91;5244291;28;20053;-73
2022/04/15 17:17:43;;;;;;;9.00;8.20;;;;;;;14.19;55.77;102721.81;5243957;28;20037;-72
2022/04/15 17:20:14;;;;;;;8.20;7.47;;;;;;;14.47;59.87;102728.09;5243149;28;20013;-70
2022/04/15 17:22:50;;;;;;;8.82;7.90;;;;;;;14.36;56.89;102732.78;5243338;28;20086;-70
2022/04/15 17:25:21;;;;;;;8.23;7.45;;;;;;;14.38;56.38;102729.75;5243794;28;20021;-68
2022/04/15 17:27:53;;;;;;;10.88;9.18;;;;;;;14.08;56.92;102740.41;5243319;28;20041;-69
2022/04/15 17:30:24;;;;;;;10.23;9.15;;;;;;;14.13;56.81;102740.44;5243387;28;20045;-68
